Time;durP1;ratioP1;P1;durP2;ratioP2;P2;SDS_P1;SDS_P2;PMS_P1;PMS_P2;Temp;Humidity;BMP_temperature;BMP_pressure;BME280_temperature;BME280_humidity;BME280_pressure;Samples;Min_cycle;Max_cycle;Signal;HPM_P1;HPM_P2
2022/06/07 00:01:39;;;;;;;0.98;0.40;;;14.00;99.90;;;;;;5022257;28;20229;-78
2022/06/07 00:04:11;;;;;;;1.00;0.35;;;14.00;99.90;;;;;;5029525;28;20198;-77
2022/06/07 00:06:42;;;;;;;1.67;0.30;;;14.10;99.90;;;;;;5023888;28;20214;-77
2022/06/07 00:09:13;;;;;;;2.95;0.47;;;14.20;99.90;;;;;;5019004;28;20205;-77
2022/06/07 00:11:43;;;;;;;2.20;0.43;;;14.30;99.90;;;;;;5014405;28;20202;-74
2022/06/07 00:14:14;;;;;;;2.42;0.63;;;14.30;99.90;;;;;;5027598;28;20202;-77
2022/06/07 00:16:45;;;;;;;1.45;0.57;;;14.40;99.90;;;;;;5017396;28;20244;-76
2022/06/07 00:19:18;;;;;;;1.85;0.70;;;14.40;99.90;;;;;;5022199;28;20201;-75
2022/06/07 00:21:48;;;;;;;0.75;0.43;;;14.50;99.90;;;;;;5016684;28;20213;-78
2022/06/07 00:24:19;;;;;;;0.75;0.30;;;14.60;99.90;;;;;;5016516;28;20273;-78
2022/06/07 00:26:50;;;;;;;0.60;0.30;;;14.60;99.90;;;;;;5019500;28;20194;-75
2022/06/07 00:29:21;;;;;;;0.43;0.30;;;14.60;99.90;;;;;;5032659;28;20205;-77
2022/06/07 00:31:52;;;;;;;0.80;0.32;;;14.60;99.90;;;;;;5027638;28;20206;-76
2022/06/07 00:34:25;;;;;;;0.82;0.40;;;14.70;99.90;;;;;;5025019;28;20202;-73
2022/06/07 00:36:56;;;;;;;0.55;0.40;;;14.80;99.90;;;;;;5030632;28;20207;-75
2022/06/07 00:39:26;;;;;;;0.30;0.30;;;14.90;99.90;;;;;;5030121;28;20214;-76
2022/06/07 00:41:57;;;;;;;1.73;0.30;;;15.00;99.90;;;;;;5035363;28;20233;-76
2022/06/07 00:44:36;;;;;;;0.65;0.30;;;15.10;99.90;;;;;;5028267;28;20202;-77
2022/06/07 00:47:11;;;;;;;4.38;0.30;;;15.20;99.90;;;;;;5031483;28;20194;-76
2022/06/07 00:49:49;;;;;;;0.95;0.50;;;15.30;99.90;;;;;;5035789;28;20218;-74
2022/06/07 00:52:22;;;;;;;0.43;0.32;;;15.30;99.90;;;;;;5035951;28;20194;-75
2022/06/07 00:54:53;;;;;;;0.47;0.30;;;15.40;99.90;;;;;;5029980;28;20198;-75
2022/06/07 00:57:24;;;;;;;1.23;0.50;;;15.60;99.90;;;;;;5023907;28;20198;-76
2022/06/07 00:59:55;;;;;;;1.35;0.40;;;15.70;99.90;;;;;;5018769;28;20203;-74
2022/06/07 01:02:26;;;;;;;0.40;0.40;;;15.80;99.90;;;;;;5024824;28;20246;-74
2022/06/07 01:04:59;;;;;;;0.52;0.20;;;15.80;99.90;;;;;;5033805;28;20604;-75
2022/06/07 01:13:03;;;;;;;0.88;0.30;;;15.70;99.90;;;;;;5023851;28;20343;-74
2022/06/07 01:15:33;;;;;;;0.50;0.30;;;15.80;99.90;;;;;;5017371;28;20202;-75
2022/06/07 01:18:04;;;;;;;1.17;0.43;;;15.80;99.90;;;;;;5017020;28;20202;-75
2022/06/07 01:20:37;;;;;;;0.43;0.30;;;15.80;99.90;;;;;;5025385;28;20194;-73
2022/06/07 01:23:09;;;;;;;1.10;0.40;;;15.90;99.90;;;;;;5032434;28;20226;-75
2022/06/07 01:25:40;;;;;;;0.68;0.40;;;16.00;99.90;;;;;;5021878;28;20587;-75
2022/06/07 01:28:11;;;;;;;0.10;0.10;;;16.00;99.90;;;;;;5015729;28;20272;-74
2022/06/07 01:30:41;;;;;;;0.32;0.20;;;16.10;99.90;;;;;;5015559;28;20190;-75
2022/06/07 01:33:12;;;;;;;0.30;0.30;;;16.20;99.90;;;;;;5025203;28;20197;-76
2022/06/07 01:35:45;;;;;;;0.40;0.40;;;16.30;99.90;;;;;;5021241;28;20187;-76
2022/06/07 01:38:18;;;;;;;0.20;0.20;;;16.30;99.90;;;;;;5017130;28;20202;-75
2022/06/07 01:43:41;;;;;;;0.10;0.10;;;16.40;99.90;;;;;;5028897;28;20248;-76
2022/06/07 01:46:11;;;;;;;0.28;0.20;;;16.40;99.90;;;;;;5025893;28;20187;-76
2022/06/07 01:48:42;;;;;;;0.20;0.20;;;16.40;99.90;;;;;;5030043;28;20191;-74
2022/06/07 01:51:13;;;;;;;0.20;0.20;;;16.50;99.90;;;;;;5015571;28;20198;-79
2022/06/07 01:53:46;;;;;;;3.42;0.28;;;16.60;99.90;;;;;;5016836;28;20193;-87
2022/06/07 01:56:19;;;;;;;1.52;0.43;;;16.50;99.90;;;;;;5027409;28;20572;-82
2022/06/07 01:58:49;;;;;;;0.22;0.20;;;16.50;99.90;;;;;;5029530;28;20183;-84
2022/06/07 02:01:23;;;;;;;0.20;0.20;;;16.50;99.90;;;;;;5021925;28;20218;-84
2022/06/07 02:03:54;;;;;;;0.20;0.20;;;16.60;99.90;;;;;;5061102;22;20245;-74
2022/06/07 02:06:24;;;;;;;0.10;0.10;;;16.60;99.90;;;;;;5066149;28;20201;-72
2022/06/07 02:08:57;;;;;;;0.28;0.10;;;16.60;99.90;;;;;;5073377;28;20189;-72
2022/06/07 02:11:31;;;;;;;2.15;0.30;;;16.70;99.90;;;;;;5071960;28;20185;-72
2022/06/07 02:14:02;;;;;;;0.40;0.20;;;16.70;99.90;;;;;;5072013;28;20189;-74
2022/06/07 02:16:33;;;;;;;0.17;0.13;;;16.60;99.90;;;;;;5071163;28;20189;-72
2022/06/07 02:19:04;;;;;;;0.60;0.20;;;16.70;99.90;;;;;;5073376;28;20208;-75
2022/06/07 02:21:35;;;;;;;0.90;0.30;;;16.80;99.90;;;;;;5065212;28;20204;-72
2022/06/07 02:24:09;;;;;;;0.10;0.10;;;16.80;99.90;;;;;;5069482;28;20221;-73
2022/06/07 02:26:44;;;;;;;0.20;0.10;;;16.90;99.90;;;;;;5071953;28;20247;-73
2022/06/07 02:29:17;;;;;;;0.10;0.10;;;16.80;99.90;;;;;;5070395;28;20192;-75
2022/06/07 02:31:52;;;;;;;0.30;0.20;;;16.90;99.90;;;;;;5072907;28;20204;-71
2022/06/07 02:34:24;;;;;;;0.10;0.10;;;16.80;99.90;;;;;;5069856;28;20587;-76
2022/06/07 02:36:58;;;;;;;0.28;0.10;;;16.80;99.90;;;;;;5070763;28;20254;-72
2022/06/07 02:39:32;;;;;;;0.88;0.25;;;16.80;99.90;;;;;;5065179;28;20185;-72
2022/06/07 02:42:05;;;;;;;0.73;0.25;;;16.90;99.90;;;;;;5072636;28;20203;-73
2022/06/07 02:44:36;;;;;;;1.27;0.20;;;16.80;99.90;;;;;;5072123;28;20196;-72
2022/06/07 02:47:07;;;;;;;0.10;0.10;;;16.80;99.90;;;;;;5065349;28;20193;-75
2022/06/07 02:49:37;;;;;;;0.60;0.10;;;16.80;99.90;;;;;;5070650;28;20197;-72
2022/06/07 02:52:09;;;;;;;0.20;0.17;;;16.80;99.90;;;;;;5073525;28;20272;-76
2022/06/07 02:54:42;;;;;;;0.20;0.20;;;16.80;99.90;;;;;;5070107;28;20560;-74
2022/06/07 02:57:14;;;;;;;0.10;0.10;;;16.80;99.90;;;;;;5066783;28;20196;-74
2022/06/07 02:59:44;;;;;;;0.28;0.10;;;16.90;99.90;;;;;;5067977;28;20238;-74
2022/06/07 03:02:15;;;;;;;0.40;0.28;;;16.90;99.90;;;;;;5065148;28;20189;-76
2022/06/07 03:04:46;;;;;;;0.88;0.10;;;16.90;99.90;;;;;;5071084;28;20229;-77
2022/06/07 03:07:17;;;;;;;1.02;0.20;;;16.90;99.90;;;;;;5062826;28;20197;-76
2022/06/07 03:09:49;;;;;;;0.30;0.30;;;16.90;99.90;;;;;;5070334;28;20188;-71
2022/06/07 03:12:20;;;;;;;0.20;0.20;;;16.90;99.90;;;;;;5067683;28;20186;-72
2022/06/07 03:14:51;;;;;;;0.30;0.20;;;16.90;99.90;;;;;;5069150;28;20193;-72
2022/06/07 03:17:22;;;;;;;0.10;0.10;;;17.00;99.90;;;;;;5073233;28;20543;-75
2022/06/07 03:19:52;;;;;;;0.20;0.20;;;16.90;99.90;;;;;;5071627;28;20204;-72
2022/06/07 03:22:23;;;;;;;1.60;0.25;;;16.90;99.90;;;;;;5069605;28;20197;-72
2022/06/07 03:24:56;;;;;;;1.05;0.52;;;17.00;99.90;;;;;;5071518;28;20219;-72
2022/06/07 03:27:27;;;;;;;0.20;0.20;;;17.00;99.90;;;;;;5055767;28;20197;-71
2022/06/07 03:29:57;;;;;;;0.35;0.20;;;17.10;99.90;;;;;;5068752;28;20197;-75
2022/06/07 03:32:28;;;;;;;0.52;0.40;;;16.90;99.90;;;;;;5065092;28;20288;-72
2022/06/07 03:34:59;;;;;;;0.65;0.20;;;16.90;99.90;;;;;;5064467;28;20184;-70
2022/06/07 03:37:30;;;;;;;0.20;0.20;;;16.90;99.90;;;;;;5069166;28;20188;-72
2022/06/07 03:40:03;;;;;;;2.10;0.10;;;16.80;99.90;;;;;;5056852;28;20185;-73
2022/06/07 03:42:33;;;;;;;0.43;0.30;;;16.80;99.90;;;;;;5060762;28;20232;-74
2022/06/07 03:45:05;;;;;;;0.20;0.10;;;16.90;99.90;;;;;;5066893;28;20208;-73
2022/06/07 03:47:37;;;;;;;0.32;0.15;;;17.00;99.90;;;;;;5064200;28;20207;-73
2022/06/07 03:50:09;;;;;;;0.20;0.20;;;16.90;99.90;;;;;;5071273;28;20193;-71
2022/06/07 03:52:40;;;;;;;0.20;0.10;;;16.80;99.90;;;;;;5065155;28;20560;-74
2022/06/07 03:55:13;;;;;;;2.35;0.32;;;16.80;99.90;;;;;;5062671;28;20197;-73
2022/06/07 03:57:43;;;;;;;0.30;0.30;;;16.80;99.90;;;;;;5070629;28;20228;-72
2022/06/07 04:00:15;;;;;;;1.08;0.20;;;16.70;99.90;;;;;;5069252;28;20234;-72
2022/06/07 04:02:45;;;;;;;1.30;0.30;;;16.70;99.90;;;;;;5070528;28;20208;-73
2022/06/07 04:05:16;;;;;;;0.40;0.25;;;16.70;99.90;;;;;;5074802;28;20259;-73
2022/06/07 04:10:36;;;;;;;0.55;0.20;;;16.70;99.90;;;;;;5073301;28;20203;-74
2022/06/07 04:13:06;;;;;;;0.45;0.20;;;16.70;99.90;;;;;;5068071;28;20189;-73
2022/06/07 04:15:38;;;;;;;0.20;0.20;;;16.70;99.90;;;;;;5074966;28;20193;-75
2022/06/07 04:18:09;;;;;;;0.70;0.20;;;16.60;99.90;;;;;;5071957;28;20189;-73
2022/06/07 04:20:40;;;;;;;0.35;0.20;;;16.60;99.90;;;;;;5071318;28;20228;-72
2022/06/07 04:23:12;;;;;;;0.10;0.10;;;16.50;99.90;;;;;;5068983;28;20220;-71
2022/06/07 04:25:45;;;;;;;0.13;0.13;;;16.50;99.90;;;;;;5073188;28;20202;-75
2022/06/07 04:28:16;;;;;;;0.47;0.10;;;16.50;99.90;;;;;;5065532;28;20197;-76
2022/06/07 04:30:49;;;;;;;0.30;0.20;;;16.50;99.90;;;;;;5072767;28;20560;-76
2022/06/07 04:33:20;;;;;;;0.32;0.20;;;16.50;99.90;;;;;;5068150;28;20189;-75
2022/06/07 04:35:50;;;;;;;1.95;0.30;;;16.50;99.90;;;;;;5073276;28;20189;-81
2022/06/07 04:38:21;;;;;;;0.10;0.10;;;16.50;99.90;;;;;;5072079;28;20683;-80
2022/06/07 04:40:54;;;;;;;0.20;0.20;;;16.40;99.90;;;;;;5072138;28;20197;-76
2022/06/07 04:43:24;;;;;;;0.32;0.22;;;16.50;99.90;;;;;;5072458;28;20208;-79
2022/06/07 04:46:04;;;;;;;0.65;0.20;;;16.30;99.90;;;;;;5073251;28;20213;-76
2022/06/07 04:48:35;;;;;;;0.45;0.28;;;16.50;99.90;;;;;;5070186;28;20665;-74
2022/06/07 04:51:07;;;;;;;0.32;0.20;;;16.50;99.90;;;;;;5072004;28;20201;-77
2022/06/07 04:53:38;;;;;;;0.30;0.30;;;16.60;99.90;;;;;;5066448;28;20602;-77
2022/06/07 04:56:15;;;;;;;0.40;0.38;;;16.60;99.90;;;;;;5074458;28;20192;-75
2022/06/07 04:58:46;;;;;;;0.55;0.45;;;16.60;99.90;;;;;;5072313;28;20189;-77
2022/06/07 05:01:18;;;;;;;0.40;0.20;;;16.60;99.90;;;;;;5068466;28;20197;-77
2022/06/07 05:03:49;;;;;;;0.63;0.20;;;16.60;99.90;;;;;;5061396;28;20594;-77
2022/06/07 05:06:21;;;;;;;0.75;0.30;;;16.60;99.90;;;;;;5065941;28;20279;-76
2022/06/07 05:08:53;;;;;;;0.43;0.28;;;16.50;99.90;;;;;;5071690;28;20200;-78
2022/06/07 05:11:25;;;;;;;0.50;0.22;;;16.50;99.90;;;;;;5065924;28;20246;-75
2022/06/07 05:13:57;;;;;;;1.17;0.30;;;16.40;99.90;;;;;;5070227;28;20205;-75
2022/06/07 05:16:28;;;;;;;0.70;0.20;;;16.40;99.90;;;;;;5068400;28;20239;-78
2022/06/07 05:19:00;;;;;;;0.60;0.20;;;16.30;99.90;;;;;;5071295;28;20197;-76
2022/06/07 05:21:30;;;;;;;0.73;0.20;;;16.20;99.90;;;;;;5069675;28;20201;-75
2022/06/07 05:24:01;;;;;;;1.50;0.45;;;16.10;99.90;;;;;;5071952;28;20217;-77
2022/06/07 05:26:37;;;;;;;0.35;0.35;;;16.10;99.90;;;;;;5072549;28;20561;-78
2022/06/07 05:29:09;;;;;;;0.52;0.30;;;16.10;99.90;;;;;;5068536;28;20208;-75
2022/06/07 05:31:39;;;;;;;0.20;0.20;;;16.00;99.90;;;;;;5074139;28;20678;-75
2022/06/07 05:34:10;;;;;;;0.30;0.30;;;16.00;99.90;;;;;;5068519;28;20660;-74
2022/06/07 05:36:41;;;;;;;0.10;0.10;;;16.00;99.90;;;;;;5068264;28;20216;-76
2022/06/07 05:39:20;;;;;;;0.90;0.20;;;16.00;99.90;;;;;;5064347;28;20224;-76
2022/06/07 05:41:53;;;;;;;0.32;0.30;;;16.00;99.90;;;;;;5066750;28;20208;-74
2022/06/07 05:44:24;;;;;;;0.28;0.20;;;16.00;99.90;;;;;;5072262;28;20212;-75
2022/06/07 05:46:56;;;;;;;0.55;0.30;;;15.90;99.90;;;;;;5075500;28;20967;-74
2022/06/07 05:49:26;;;;;;;0.57;0.20;;;15.90;99.90;;;;;;5066784;28;20197;-79
2022/06/07 05:51:57;;;;;;;0.30;0.30;;;15.80;99.90;;;;;;5067400;28;20208;-75
2022/06/07 05:54:28;;;;;;;0.32;0.30;;;15.80;99.90;;;;;;5070229;28;20671;-79
2022/06/07 05:57:00;;;;;;;1.25;0.50;;;15.70;99.90;;;;;;5073564;28;20679;-75
2022/06/07 05:59:31;;;;;;;2.50;0.60;;;15.70;99.90;;;;;;5068753;28;20208;-76
2022/06/07 06:02:02;;;;;;;2.10;0.38;;;15.70;99.90;;;;;;5062346;28;20201;-75
2022/06/07 06:04:33;;;;;;;0.57;0.30;;;15.70;99.90;;;;;;5073333;28;20240;-74
2022/06/07 06:07:04;;;;;;;1.00;0.40;;;15.70;99.90;;;;;;5074854;28;20189;-74
2022/06/07 06:12:23;;;;;;;0.43;0.30;;;15.50;99.90;;;;;;5073878;28;20274;-77
2022/06/07 06:14:53;;;;;;;1.00;0.32;;;15.50;99.90;;;;;;5070545;28;20264;-76
2022/06/07 06:17:24;;;;;;;2.05;0.40;;;15.40;99.90;;;;;;5069248;28;20564;-75
2022/06/07 06:19:55;;;;;;;2.33;0.43;;;15.30;99.90;;;;;;5072840;28;20626;-77
2022/06/07 06:22:26;;;;;;;0.30;0.30;;;15.20;99.90;;;;;;5067938;28;20561;-75
2022/06/07 06:24:57;;;;;;;1.50;0.40;;;15.10;99.90;;;;;;5072648;28;20683;-75
2022/06/07 06:27:30;;;;;;;1.15;0.38;;;14.90;99.90;;;;;;5072025;28;20199;-77
2022/06/07 06:30:01;;;;;;;0.40;0.40;;;14.90;99.90;;;;;;5070949;28;20284;-74
2022/06/07 06:32:32;;;;;;;1.83;0.43;;;14.80;99.90;;;;;;5070897;28;20196;-76
2022/06/07 06:35:02;;;;;;;1.20;0.40;;;14.70;99.90;;;;;;5077448;28;20196;-80
2022/06/07 06:37:33;;;;;;;0.95;0.40;;;14.70;99.90;;;;;;5070351;28;20197;-76
2022/06/07 06:40:04;;;;;;;0.70;0.50;;;14.60;99.90;;;;;;5070459;28;20200;-76
2022/06/07 06:42:36;;;;;;;2.45;0.80;;;14.60;99.90;;;;;;5058770;28;20197;-75
2022/06/07 06:45:07;;;;;;;1.00;0.40;;;14.60;99.90;;;;;;5071038;28;20220;-76
2022/06/07 06:47:38;;;;;;;1.15;0.40;;;14.50;99.90;;;;;;5067262;28;20199;-76
2022/06/07 06:50:09;;;;;;;1.13;0.35;;;14.50;99.90;;;;;;5071628;28;20272;-80
2022/06/07 06:52:40;;;;;;;1.95;0.22;;;14.40;99.90;;;;;;5071712;28;20247;-77
2022/06/07 06:55:11;;;;;;;0.63;0.38;;;14.30;99.90;;;;;;5063776;28;20201;-74
2022/06/07 06:57:44;;;;;;;0.50;0.40;;;14.20;99.90;;;;;;5067905;28;20289;-77
2022/06/07 07:00:15;;;;;;;0.98;0.32;;;14.10;99.90;;;;;;5070476;28;20201;-75
2022/06/07 07:02:46;;;;;;;0.85;0.32;;;14.20;99.90;;;;;;5069680;28;20203;-74
2022/06/07 07:05:18;;;;;;;0.32;0.32;;;14.20;99.90;;;;;;5068185;28;20244;-77
2022/06/07 07:07:49;;;;;;;1.55;0.40;;;14.10;99.90;;;;;;5072401;28;20193;-74
2022/06/07 07:10:20;;;;;;;0.75;0.35;;;14.10;99.90;;;;;;5072534;28;20548;-76
2022/06/07 07:12:52;;;;;;;1.27;0.30;;;14.10;99.90;;;;;;5071878;28;20193;-75
2022/06/07 07:15:23;;;;;;;0.30;0.30;;;14.00;99.90;;;;;;5072282;28;20204;-76
2022/06/07 07:17:54;;;;;;;0.30;0.30;;;14.00;99.90;;;;;;5072523;28;20530;-74
2022/06/07 07:20:25;;;;;;;0.65;0.43;;;14.00;99.90;;;;;;5072334;28;20232;-77
2022/06/07 07:22:56;;;;;;;0.40;0.30;;;14.00;99.90;;;;;;5064424;28;20193;-76
2022/06/07 07:25:26;;;;;;;0.80;0.45;;;13.90;99.90;;;;;;5072416;28;20224;-75
2022/06/07 07:27:59;;;;;;;0.50;0.32;;;14.00;99.90;;;;;;5072191;28;20189;-76
2022/06/07 07:30:30;;;;;;;0.55;0.35;;;14.00;99.90;;;;;;5068801;28;20192;-76
2022/06/07 07:33:00;;;;;;;0.45;0.38;;;13.90;99.90;;;;;;5070953;28;20668;-77
2022/06/07 07:35:32;;;;;;;3.15;0.40;;;13.90;99.90;;;;;;5072196;28;20201;-76
2022/06/07 07:38:05;;;;;;;0.50;0.40;;;13.90;99.90;;;;;;5068804;28;20197;-76
2022/06/07 07:40:36;;;;;;;0.50;0.40;;;13.90;99.90;;;;;;5067592;28;20197;-76
2022/06/07 07:43:08;;;;;;;1.08;0.40;;;13.90;99.90;;;;;;5064051;28;20228;-76
2022/06/07 07:45:39;;;;;;;1.95;0.30;;;13.90;99.90;;;;;;5070741;28;20216;-76
2022/06/07 07:48:10;;;;;;;0.30;0.30;;;13.90;99.90;;;;;;5067836;28;20193;-78
2022/06/07 07:50:41;;;;;;;0.75;0.50;;;13.90;99.90;;;;;;5067950;28;20192;-77
2022/06/07 07:53:12;;;;;;;1.58;0.40;;;13.90;99.90;;;;;;5069147;28;20192;-75
2022/06/07 07:55:46;;;;;;;0.40;0.40;;;13.90;99.90;;;;;;5070289;28;20204;-75
2022/06/07 07:58:20;;;;;;;0.63;0.43;;;13.90;99.90;;;;;;5068155;28;20632;-76
2022/06/07 08:00:51;;;;;;;0.40;0.40;;;13.90;99.90;;;;;;5068540;28;20200;-76
2022/06/07 08:03:23;;;;;;;0.63;0.40;;;13.90;99.90;;;;;;5064328;28;20193;-77
2022/06/07 08:05:53;;;;;;;1.67;0.32;;;13.90;99.90;;;;;;5068863;28;20243;-76
2022/06/07 08:08:24;;;;;;;0.50;0.40;;;13.80;99.90;;;;;;5066865;28;20224;-77
2022/06/07 08:10:56;;;;;;;1.10;0.57;;;13.80;99.90;;;;;;5069704;28;20197;-76
2022/06/07 08:13:29;;;;;;;0.80;0.55;;;13.80;99.90;;;;;;5064269;28;20185;-76
2022/06/07 08:16:00;;;;;;;0.70;0.45;;;13.70;99.90;;;;;;5070637;28;20200;-74
2022/06/07 08:18:31;;;;;;;1.48;0.65;;;13.70;99.90;;;;;;5066124;28;20197;-75
2022/06/07 08:21:03;;;;;;;1.55;0.52;;;13.70;99.90;;;;;;5064294;28;20197;-78
2022/06/07 08:23:34;;;;;;;0.50;0.50;;;13.70;99.90;;;;;;5071023;28;20197;-76
2022/06/07 08:26:07;;;;;;;0.73;0.35;;;13.70;99.90;;;;;;5062355;28;20221;-77
2022/06/07 08:28:40;;;;;;;1.45;0.52;;;13.60;99.90;;;;;;5066833;28;20203;-76
2022/06/07 08:31:14;;;;;;;0.88;0.47;;;13.60;99.90;;;;;;5068821;28;20193;-75
2022/06/07 08:39:19;;;;;;;0.63;0.30;;;13.50;99.90;;;;;;5066719;28;20204;-75
2022/06/07 08:41:53;;;;;;;0.50;0.50;;;13.40;99.90;;;;;;5066922;28;20196;-77
2022/06/07 08:44:30;;;;;;;1.48;0.30;;;13.30;99.90;;;;;;5070717;28;20304;-76
2022/06/07 08:47:04;;;;;;;0.30;0.30;;;13.20;99.90;;;;;;5068109;28;20600;-75
2022/06/07 08:49:35;;;;;;;0.40;0.30;;;13.10;99.90;;;;;;5069169;28;20199;-77
2022/06/07 08:52:17;;;;;;;0.70;0.40;;;13.10;99.90;;;;;;5072950;28;20204;-75
2022/06/07 08:54:48;;;;;;;0.82;0.30;;;13.00;99.90;;;;;;5069037;28;20216;-76
2022/06/07 08:57:22;;;;;;;0.43;0.35;;;13.00;99.90;;;;;;5072342;28;20215;-77
2022/06/07 08:59:58;;;;;;;0.35;0.35;;;12.80;99.90;;;;;;5071205;28;20197;-81
2022/06/07 09:02:55;;;;;;;0.30;0.30;;;12.80;99.90;;;;;;5071552;28;20257;-80
2022/06/07 09:05:29;;;;;;;0.55;0.30;;;12.70;99.90;;;;;;5071758;28;20228;-75
2022/06/07 09:08:00;;;;;;;1.33;0.50;;;12.60;99.90;;;;;;5069652;28;20235;-75
2022/06/07 09:13:34;;;;;;;0.45;0.40;;;12.50;99.90;;;;;;5045746;28;20193;-75
2022/06/07 09:16:08;;;;;;;0.50;0.50;;;12.40;99.90;;;;;;5047339;28;20292;-75
2022/06/07 09:18:45;;;;;;;2.08;0.60;;;12.40;99.90;;;;;;5060239;28;20197;-74
2022/06/07 09:21:29;;;;;;;0.55;0.47;;;12.40;99.90;;;;;;5071471;28;20258;-76
2022/06/07 09:24:02;;;;;;;0.60;0.60;;;12.40;99.90;;;;;;5069655;28;20258;-76
2022/06/07 09:26:40;;;;;;;0.68;0.60;;;12.30;99.90;;;;;;5072868;28;20205;-75
2022/06/07 09:29:16;;;;;;;0.57;0.57;;;12.30;99.90;;;;;;5072401;28;20200;-76
2022/06/07 09:31:50;;;;;;;0.80;0.60;;;12.30;99.90;;;;;;5070907;28;20203;-76
2022/06/07 09:34:26;;;;;;;0.88;0.60;;;12.20;99.90;;;;;;5072607;28;20203;-77
2022/06/07 09:37:01;;;;;;;1.20;0.73;;;12.20;99.90;;;;;;5074607;28;20238;-75
2022/06/07 09:39:36;;;;;;;1.52;0.77;;;12.10;99.90;;;;;;5072407;28;20192;-75
2022/06/07 09:42:18;;;;;;;2.08;0.80;;;12.10;99.90;;;;;;5070778;28;20189;-76
2022/06/07 09:45:00;;;;;;;2.83;0.73;;;12.10;99.90;;;;;;5070729;28;20212;-76
2022/06/07 09:47:33;;;;;;;0.98;0.50;;;12.00;99.90;;;;;;5072516;28;20216;-77
2022/06/07 09:50:14;;;;;;;2.10;0.70;;;12.10;99.90;;;;;;5065999;28;20203;-76
2022/06/07 09:52:49;;;;;;;1.58;0.68;;;12.00;99.90;;;;;;5069094;28;20193;-75
2022/06/07 09:55:27;;;;;;;0.60;0.60;;;11.90;99.90;;;;;;5071470;28;20200;-77
2022/06/07 09:58:12;;;;;;;1.02;0.60;;;11.90;99.90;;;;;;5072571;28;20199;-75
2022/06/07 10:00:50;;;;;;;1.50;0.70;;;11.90;99.90;;;;;;5069471;28;20196;-78
2022/06/07 10:03:38;;;;;;;1.85;0.70;;;11.90;99.90;;;;;;5066752;28;20201;-76
2022/06/07 10:06:16;;;;;;;1.58;0.68;;;11.80;99.90;;;;;;5066061;28;20225;-75
2022/06/07 10:09:03;;;;;;;53.38;25.27;;;11.80;99.90;;;;;;5071833;28;20205;-76
2022/06/07 10:11:41;;;;;;;51.88;26.45;;;11.70;99.90;;;;;;5070933;28;20632;-77
2022/06/07 10:14:32;;;;;;;149.05;72.85;;;11.80;99.90;;;;;;5068843;28;20231;-77
2022/06/07 10:17:27;;;;;;;11.63;6.97;;;11.80;99.90;;;;;;5057848;28;20664;-76
2022/06/07 10:20:07;;;;;;;4.63;2.25;;;11.70;99.90;;;;;;5062376;28;20608;-77
2022/06/07 10:22:53;;;;;;;141.57;59.45;;;11.70;99.90;;;;;;5067130;28;20200;-76
2022/06/07 10:25:31;;;;;;;47.60;25.80;;;11.70;99.90;;;;;;5068916;28;20538;-76
2022/06/07 10:28:09;;;;;;;7.05;2.75;;;11.70;99.90;;;;;;5070920;28;20196;-77
2022/06/07 10:30:47;;;;;;;3.08;1.45;;;11.70;99.90;;;;;;5067700;28;20655;-77
2022/06/07 10:33:42;;;;;;;1.65;1.10;;;11.70;99.90;;;;;;5065341;28;20208;-77
2022/06/07 10:36:42;;;;;;;1.55;1.00;;;11.60;99.90;;;;;;5068383;28;20197;-76
2022/06/07 10:39:44;;;;;;;0.70;0.60;;;11.60;99.90;;;;;;5072424;28;20196;-76
2022/06/07 10:42:27;;;;;;;1.23;0.70;;;11.50;99.90;;;;;;5067569;28;20207;-75
2022/06/07 10:45:04;;;;;;;1.10;0.60;;;11.50;99.90;;;;;;5069201;28;20212;-76
2022/06/07 10:47:38;;;;;;;0.88;0.60;;;11.50;99.90;;;;;;5067568;28;20613;-76
2022/06/07 10:50:17;;;;;;;0.70;0.55;;;11.40;99.90;;;;;;5071576;28;20197;-76
2022/06/07 10:52:59;;;;;;;1.92;0.60;;;11.40;99.90;;;;;;5071094;28;20562;-76
2022/06/07 10:55:37;;;;;;;1.20;0.70;;;11.40;99.90;;;;;;5058293;28;20193;-76
2022/06/07 10:58:32;;;;;;;0.95;0.60;;;11.40;99.90;;;;;;5071382;28;20701;-77
2022/06/07 11:01:09;;;;;;;0.90;0.80;;;11.40;99.90;;;;;;5070079;28;20200;-77
2022/06/07 11:03:59;;;;;;;0.65;0.60;;;11.20;99.90;;;;;;5068680;28;20197;-77
2022/06/07 11:09:35;;;;;;;40.10;23.35;;;11.30;99.90;;;;;;5073312;28;20192;-76
2022/06/07 11:12:13;;;;;;;25.23;16.48;;;11.30;99.90;;;;;;5067863;28;20678;-75
2022/06/07 11:15:08;;;;;;;5.38;3.08;;;11.20;99.90;;;;;;5070296;28;20197;-76
2022/06/07 11:17:45;;;;;;;4.63;2.97;;;11.20;99.90;;;;;;5066255;28;20220;-76
2022/06/07 11:20:20;;;;;;;2.97;2.13;;;11.10;99.90;;;;;;5069967;28;20205;-76
2022/06/07 11:23:08;;;;;;;1.20;1.08;;;11.20;99.90;;;;;;5071514;28;20193;-77
2022/06/07 11:25:43;;;;;;;1.58;0.95;;;11.10;99.90;;;;;;5069518;28;20213;-76
2022/06/07 11:28:17;;;;;;;0.80;0.75;;;11.10;99.90;;;;;;5069175;28;20223;-76
2022/06/07 11:30:52;;;;;;;0.90;0.80;;;11.10;99.90;;;;;;5070899;28;20224;-78
2022/06/07 11:33:43;;;;;;;2.38;0.90;;;11.00;99.90;;;;;;5069576;28;20227;-76
2022/06/07 11:36:36;;;;;;;1.50;0.80;;;11.00;99.90;;;;;;5070603;28;20193;-76
2022/06/07 11:39:32;;;;;;;1.23;0.80;;;11.00;99.90;;;;;;5067142;28;20675;-76
2022/06/07 11:42:29;;;;;;;1.10;0.77;;;10.90;99.90;;;;;;5064517;28;20205;-77
2022/06/07 11:45:22;;;;;;;1.17;0.80;;;10.90;99.90;;;;;;5061088;28;20230;-78
2022/06/07 11:48:14;;;;;;;1.58;0.90;;;10.80;99.90;;;;;;5062689;28;20853;-77
2022/06/07 11:50:49;;;;;;;1.33;0.82;;;10.80;99.90;;;;;;5061079;28;20197;-77
2022/06/07 11:53:33;;;;;;;1.20;0.88;;;10.80;99.90;;;;;;5067552;28;20196;-77
2022/06/07 11:56:29;;;;;;;1.08;0.80;;;10.70;99.90;;;;;;5062736;28;20189;-76
2022/06/07 11:59:04;;;;;;;1.00;0.90;;;10.70;99.90;;;;;;5069597;28;20200;-76
2022/06/07 12:01:44;;;;;;;1.15;0.80;;;10.70;99.90;;;;;;5065051;28;20192;-77
2022/06/07 12:04:33;;;;;;;1.98;1.33;;;10.70;99.90;;;;;;5069193;28;20224;-76
2022/06/07 12:07:12;;;;;;;1.42;1.00;;;10.70;99.90;;;;;;5065536;28;20217;-76
2022/06/07 12:09:47;;;;;;;3.03;0.93;;;10.70;99.90;;;;;;5056090;28;20208;-76
2022/06/07 12:12:25;;;;;;;1.50;0.90;;;10.70;99.90;;;;;;5066375;28;20212;-76
2022/06/07 12:15:05;;;;;;;1.42;1.00;;;10.60;99.90;;;;;;5063252;28;20664;-76
2022/06/07 12:17:36;;;;;;;1.27;0.93;;;10.60;99.90;;;;;;5066843;28;20200;-76
2022/06/07 12:20:07;;;;;;;1.38;1.10;;;10.60;99.90;;;;;;5069508;28;20193;-75
2022/06/07 12:22:44;;;;;;;3.05;0.93;;;10.60;99.90;;;;;;5070589;28;20203;-75
2022/06/07 12:25:21;;;;;;;1.85;1.05;;;10.50;99.90;;;;;;5074155;28;20246;-76
2022/06/07 12:27:53;;;;;;;1.73;1.10;;;10.50;99.90;;;;;;5066974;28;20196;-76
2022/06/07 12:30:30;;;;;;;1.98;1.20;;;10.40;99.90;;;;;;5071768;28;20197;-76
2022/06/07 12:33:16;;;;;;;1.13;0.93;;;10.40;99.90;;;;;;5064301;28;20640;-76
2022/06/07 12:35:58;;;;;;;2.42;1.00;;;10.40;99.90;;;;;;5073671;28;20660;-76
2022/06/07 12:38:30;;;;;;;2.10;1.20;;;10.40;99.90;;;;;;5071978;28;20200;-75
2022/06/07 12:41:35;;;;;;;1.52;1.20;;;10.30;99.90;;;;;;5064609;28;20201;-76
2022/06/07 12:44:07;;;;;;;1.83;1.02;;;10.30;99.90;;;;;;5066896;28;20551;-77
2022/06/07 12:46:48;;;;;;;1.33;0.90;;;10.20;99.90;;;;;;5067466;28;20212;-75
2022/06/07 12:49:24;;;;;;;1.20;0.95;;;10.20;99.90;;;;;;5071559;28;20651;-77
2022/06/07 12:52:01;;;;;;;1.15;0.82;;;10.20;99.90;;;;;;5071688;28;20200;-76
2022/06/07 12:54:34;;;;;;;0.95;0.80;;;10.10;99.90;;;;;;5063477;28;20193;-77
2022/06/07 12:57:16;;;;;;;1.05;0.77;;;10.10;99.90;;;;;;5064689;28;20204;-76
2022/06/07 12:59:55;;;;;;;0.50;0.50;;;10.10;99.90;;;;;;5073570;28;20204;-77
2022/06/07 13:02:34;;;;;;;0.50;0.40;;;10.10;99.90;;;;;;5066587;28;20204;-77
2022/06/07 13:05:10;;;;;;;0.43;0.43;;;10.20;99.90;;;;;;5073531;28;20286;-77
2022/06/07 13:07:47;;;;;;;0.43;0.40;;;10.30;99.90;;;;;;5072844;28;20756;-76
2022/06/07 13:10:19;;;;;;;0.28;0.28;;;10.40;99.90;;;;;;5072007;28;20197;-77
2022/06/07 13:12:52;;;;;;;0.30;0.30;;;10.40;99.90;;;;;;5068709;28;20613;-77
2022/06/07 13:15:26;;;;;;;0.30;0.30;;;10.40;99.90;;;;;;5072612;28;20201;-76
2022/06/07 13:18:02;;;;;;;0.28;0.28;;;10.60;99.90;;;;;;5074768;28;20205;-76
2022/06/07 13:20:36;;;;;;;0.30;0.30;;;10.50;99.90;;;;;;5074628;28;20224;-76
2022/06/07 13:23:25;;;;;;;0.30;0.30;;;10.50;99.90;;;;;;5072013;28;20211;-75
2022/06/07 13:26:10;;;;;;;1.30;0.40;;;10.50;99.90;;;;;;5066870;28;20244;-78
2022/06/07 13:28:41;;;;;;;0.40;0.40;;;10.50;99.90;;;;;;5065636;28;20193;-76
2022/06/07 13:31:29;;;;;;;0.35;0.35;;;10.50;99.90;;;;;;5070695;28;20204;-76
2022/06/07 13:34:08;;;;;;;0.50;0.40;;;10.50;99.90;;;;;;5059984;28;20215;-73
2022/06/07 13:36:41;;;;;;;0.30;0.30;;;10.50;99.90;;;;;;5068182;28;20205;-76
2022/06/07 13:39:26;;;;;;;0.45;0.30;;;10.50;99.90;;;;;;5068921;28;20254;-76
2022/06/07 13:42:03;;;;;;;0.30;0.30;;;10.50;99.90;;;;;;5066258;28;20203;-77
2022/06/07 13:44:40;;;;;;;0.30;0.30;;;10.40;99.90;;;;;;5072371;28;20652;-76
2022/06/07 13:47:25;;;;;;;0.40;0.40;;;10.40;99.90;;;;;;5068252;28;20222;-76
2022/06/07 13:53:24;;;;;;;0.40;0.40;;;10.30;99.90;;;;;;5063577;28;20196;-77